Time;durP1;ratioP1;P1;durP2;ratioP2;P2;SDS_P1;SDS_P2;PMS_P1;PMS_P2;Temp;Humidity;BMP_temperature;BMP_pressure;BME280_temperature;BME280_humidity;BME280_pressure;Samples;Min_cycle;Max_cycle;Signal;HPM_P1;HPM_P2
2023/08/30 00:00:41;;;;;;;19.90;17.83;;;13.70;99.90;;;14.42;100.00;97362.03;10292947;28;20238;-79
2023/08/30 00:05:46;;;;;;;22.90;20.63;;;13.70;99.90;;;14.33;100.00;97353.97;10275491;28;20291;-79
2023/08/30 00:10:50;;;;;;;22.10;19.75;;;13.70;99.90;;;14.35;100.00;97352.34;10278809;28;20231;-79
2023/08/30 00:15:53;;;;;;;22.27;20.15;;;13.70;99.90;;;14.37;100.00;97348.13;10274637;28;20233;-79
2023/08/30 00:20:57;;;;;;;25.35;22.85;;;13.70;99.90;;;14.35;100.00;97346.34;10293065;28;20228;-79
2023/08/30 00:26:00;;;;;;;24.17;21.77;;;13.70;99.90;;;14.29;100.00;97347.00;10308220;28;20227;-79
2023/08/30 00:31:04;;;;;;;24.30;21.90;;;13.70;99.90;;;14.22;100.00;97337.31;10303876;28;20228;-78
2023/08/30 00:36:08;;;;;;;22.95;20.65;;;13.60;99.90;;;14.31;100.00;97337.66;10282082;28;20724;-79
2023/08/30 00:41:11;;;;;;;26.60;21.95;;;13.70;99.90;;;14.32;100.00;97331.69;10286686;28;20266;-80
2023/08/30 00:46:16;;;;;;;30.73;22.25;;;13.70;99.90;;;14.25;100.00;97329.75;10300937;28;20227;-79
2023/08/30 00:51:21;;;;;;;34.75;22.52;;;13.60;99.90;;;14.31;100.00;97327.38;10287394;28;20662;-79
2023/08/30 00:56:24;;;;;;;35.63;21.42;;;13.60;99.90;;;14.24;100.00;97333.09;10307576;28;20227;-80
2023/08/30 01:01:28;;;;;;;18.63;16.73;;;13.50;99.90;;;13.96;100.00;97324.47;10296126;28;20238;-79
2023/08/30 01:06:35;;;;;;;18.95;16.95;;;13.30;99.90;;;13.91;100.00;97318.28;10285519;28;20247;-80
2023/08/30 01:11:46;;;;;;;19.08;17.05;;;13.30;99.90;;;13.99;100.00;97313.41;10304763;28;20235;-78
2023/08/30 01:16:49;;;;;;;19.73;17.65;;;13.40;99.90;;;14.00;100.00;97317.72;10310396;28;20309;-80
2023/08/30 01:22:04;;;;;;;20.88;18.75;;;13.40;99.90;;;14.02;100.00;97303.25;10316518;28;20232;-78
2023/08/30 01:27:13;;;;;;;16.95;15.25;;;13.40;99.90;;;14.00;100.00;97306.59;10320958;28;20641;-80
2023/08/30 01:32:16;;;;;;;15.85;14.25;;;13.40;99.90;;;13.97;100.00;97304.78;10289430;28;20230;-79
2023/08/30 01:37:20;;;;;;;16.73;14.95;;;13.30;99.90;;;13.93;100.00;97303.78;10324206;28;20235;-79
2023/08/30 01:42:26;;;;;;;20.08;17.90;;;13.30;99.90;;;13.91;100.00;97310.59;10292308;28;20426;-78
2023/08/30 01:47:31;;;;;;;20.42;18.52;;;13.30;99.90;;;13.85;100.00;97305.22;10311461;28;20227;-78
2023/08/30 01:52:35;;;;;;;39.42;20.65;;;13.30;99.90;;;13.78;100.00;97310.97;10297359;28;20720;-79
2023/08/30 01:57:39;;;;;;;51.95;20.80;;;13.20;99.90;;;13.81;100.00;97307.63;10315618;28;20224;-79
2023/08/30 02:02:42;;;;;;;23.15;20.95;;;13.10;99.90;;;13.74;100.00;97311.69;10303509;28;20220;-78
2023/08/30 02:07:55;;;;;;;22.33;20.05;;;13.10;99.90;;;13.75;100.00;97305.72;10281552;28;20318;-79
2023/08/30 02:13:01;;;;;;;29.77;22.40;;;13.20;99.90;;;13.63;100.00;97311.28;10295015;28;20662;-79
2023/08/30 02:18:06;;;;;;;24.58;21.98;;;13.10;99.90;;;13.65;100.00;97309.66;10297300;28;20740;-79
2023/08/30 02:23:11;;;;;;;22.60;20.30;;;13.10;99.90;;;13.66;100.00;97318.22;10311801;28;20241;-79
2023/08/30 02:28:18;;;;;;;28.67;20.95;;;13.10;99.90;;;13.61;100.00;97307.78;10290079;28;20310;-78
2023/08/30 02:33:22;;;;;;;23.38;19.08;;;13.10;99.90;;;13.63;100.00;97318.13;10296035;28;20684;-78
2023/08/30 02:38:25;;;;;;;20.58;18.25;;;13.00;99.90;;;13.64;100.00;97317.28;10300105;28;20227;-77
2023/08/30 02:43:30;;;;;;;22.88;18.70;;;13.00;99.90;;;13.65;100.00;97316.47;10278798;28;20273;-78
2023/08/30 02:48:33;;;;;;;18.95;17.05;;;13.00;99.90;;;13.55;100.00;97324.66;10285386;28;20247;-78
2023/08/30 02:53:36;;;;;;;43.92;19.23;;;12.90;99.90;;;13.56;100.00;97324.72;10296200;28;20224;-79
2023/08/30 02:58:41;;;;;;;18.40;16.75;;;13.00;99.90;;;13.48;100.00;97332.16;10276624;28;21886;-79
2023/08/30 03:03:44;;;;;;;18.42;16.73;;;12.90;99.90;;;13.59;100.00;97324.84;10296033;28;20859;-77
2023/08/30 03:08:47;;;;;;;18.25;16.45;;;13.00;99.90;;;13.57;100.00;97320.47;10301891;28;20226;-78
2023/08/30 03:13:51;;;;;;;18.65;16.95;;;12.90;99.90;;;13.50;100.00;97311.66;10278662;28;20238;-79
2023/08/30 03:18:55;;;;;;;17.45;15.85;;;12.90;99.90;;;13.48;100.00;97303.91;10288561;28;20237;-79
2023/08/30 03:23:58;;;;;;;17.98;16.38;;;12.90;99.90;;;13.42;100.00;97305.34;10291006;28;20721;-79
2023/08/30 03:29:03;;;;;;;18.00;16.42;;;12.80;99.90;;;13.43;100.00;97307.13;10322932;28;20245;-79
2023/08/30 03:34:06;;;;;;;19.15;17.35;;;12.80;99.90;;;13.47;100.00;97294.44;10308300;28;20227;-78
2023/08/30 03:39:09;;;;;;;20.30;18.40;;;12.80;99.90;;;13.43;100.00;97297.72;10293754;28;20266;-78
2023/08/30 03:44:13;;;;;;;20.70;18.58;;;12.90;99.90;;;13.48;100.00;97298.78;10278010;28;20292;-79
2023/08/30 03:49:17;;;;;;;21.88;19.73;;;12.90;99.90;;;13.50;100.00;97301.38;10278494;28;20334;-79
2023/08/30 03:54:20;;;;;;;19.67;17.77;;;12.90;99.90;;;13.50;100.00;97304.81;10294550;28;20274;-78
2023/08/30 03:59:27;;;;;;;22.35;20.15;;;13.00;99.90;;;13.62;100.00;97303.50;10275199;28;20949;-77
2023/08/30 04:04:30;;;;;;;24.23;21.83;;;13.00;99.90;;;13.61;100.00;97315.47;10294157;28;20282;-78
2023/08/30 04:09:33;;;;;;;23.95;21.48;;;13.00;99.90;;;13.60;100.00;97308.59;10278600;28;20236;-77
2023/08/30 04:14:37;;;;;;;24.70;22.20;;;12.90;99.90;;;13.59;100.00;97309.44;10319981;28;20237;-77
2023/08/30 04:19:41;;;;;;;21.50;19.42;;;13.00;99.90;;;13.43;100.00;97318.25;10290469;28;20807;-78
2023/08/30 04:24:44;;;;;;;22.83;20.58;;;12.80;99.90;;;13.44;100.00;97309.72;10302185;28;20750;-78
2023/08/30 04:29:48;;;;;;;19.67;17.67;;;12.80;99.90;;;13.48;100.00;97316.75;10290167;28;20277;-79
2023/08/30 04:34:52;;;;;;;21.50;19.50;;;12.90;99.90;;;13.56;100.00;97313.56;10316130;28;20227;-79
2023/08/30 04:39:55;;;;;;;22.02;19.90;;;12.90;99.90;;;13.59;100.00;97305.97;10296160;28;20676;-78
2023/08/30 04:45:00;;;;;;;19.83;17.92;;;13.00;99.90;;;13.63;100.00;97300.16;10295084;28;20232;-79
2023/08/30 04:50:04;;;;;;;20.15;18.27;;;13.00;99.90;;;13.59;100.00;97313.69;10268453;28;20948;-79
2023/08/30 04:55:09;;;;;;;17.58;15.80;;;13.00;99.90;;;13.54;100.00;97313.53;10278731;28;20314;-78
2023/08/30 05:00:15;;;;;;;18.00;16.48;;;13.00;99.90;;;13.60;100.00;97305.19;10275514;28;20266;-77
2023/08/30 05:05:18;;;;;;;16.67;15.18;;;13.00;99.90;;;13.66;100.00;97310.53;10321128;28;20232;-79
2023/08/30 05:10:21;;;;;;;15.80;14.38;;;13.00;99.90;;;13.71;100.00;97306.44;10315164;28;20723;-77
2023/08/30 05:15:25;;;;;;;16.40;14.85;;;13.10;99.90;;;13.71;100.00;97291.03;10275989;28;20619;-77
2023/08/30 05:20:29;;;;;;;15.35;14.05;;;13.10;99.90;;;13.75;100.00;97290.31;10281306;28;20308;-78
2023/08/30 05:25:33;;;;;;;17.30;15.70;;;13.10;99.90;;;13.75;100.00;97280.03;10296488;28;20218;-80
2023/08/30 05:30:37;;;;;;;16.58;14.98;;;13.10;99.90;;;13.84;100.00;97285.47;10283782;28;20971;-79
2023/08/30 05:35:41;;;;;;;15.65;14.43;;;13.20;99.90;;;13.86;100.00;97283.84;10275408;28;20232;-78
2023/08/30 05:40:44;;;;;;;18.73;17.02;;;13.20;99.90;;;13.99;100.00;97292.84;10282021;28;21768;-79
2023/08/30 05:45:49;;;;;;;18.23;16.65;;;13.40;99.90;;;14.12;100.00;97284.75;10323120;28;20230;-78
2023/08/30 05:50:52;;;;;;;18.63;16.67;;;13.50;99.90;;;14.17;100.00;97285.78;10289143;28;20943;-77
2023/08/30 05:55:55;;;;;;;16.85;15.23;;;13.50;99.90;;;14.27;100.00;97286.06;10271129;28;20231;-78
2023/08/30 06:01:01;;;;;;;16.30;14.70;;;13.50;99.90;;;14.43;100.00;97284.06;10271092;28;20234;-78
2023/08/30 06:06:06;;;;;;;15.30;13.90;;;13.50;99.90;;;14.53;100.00;97290.41;10272347;28;20236;-78
2023/08/30 06:11:10;;;;;;;16.25;14.95;;;13.60;99.90;;;14.41;100.00;97295.13;10269428;28;20422;-78
2023/08/30 06:16:14;;;;;;;19.15;17.42;;;13.60;99.90;;;14.31;100.00;97299.09;10285004;28;20738;-78
2023/08/30 06:21:17;;;;;;;18.20;16.70;;;13.60;99.90;;;14.41;100.00;97305.41;10287461;28;20354;-78
2023/08/30 06:26:20;;;;;;;19.55;17.67;;;13.70;99.90;;;14.43;100.00;97320.06;10319209;28;20227;-78
2023/08/30 06:31:26;;;;;;;19.75;18.05;;;13.80;99.90;;;14.60;100.00;97318.06;10287715;28;20232;-78
2023/08/30 06:36:29;;;;;;;19.48;17.77;;;13.90;99.90;;;14.79;100.00;97310.94;10276477;28;20311;-79
2023/08/30 06:41:32;;;;;;;20.70;18.75;;;13.90;99.90;;;14.79;100.00;97309.25;10288403;28;20234;-78
2023/08/30 06:46:37;;;;;;;19.23;17.58;;;14.10;99.90;;;14.78;100.00;97306.63;10295389;28;20234;-79
2023/08/30 06:51:40;;;;;;;18.40;16.80;;;14.20;99.90;;;14.95;100.00;97309.72;10286587;28;20232;-78
2023/08/30 06:56:58;;;;;;;18.55;16.95;;;14.30;99.90;;;15.12;100.00;97310.25;10292343;28;20287;-77
2023/08/30 07:02:03;;;;;;;17.55;16.05;;;14.40;99.90;;;15.33;100.00;97306.59;10291975;28;20242;-78
2023/08/30 07:07:07;;;;;;;17.80;16.20;;;14.50;99.90;;;15.53;100.00;97308.88;10284325;28;20228;-78
2023/08/30 07:12:10;;;;;;;18.20;16.70;;;14.60;99.90;;;15.57;100.00;97308.16;10281123;28;20235;-79
2023/08/30 07:17:14;;;;;;;18.10;16.60;;;14.80;99.90;;;15.67;100.00;97307.56;10315992;28;20673;-78
2023/08/30 07:22:17;;;;;;;18.17;16.67;;;14.90;99.90;;;15.81;100.00;97310.56;10294131;28;20224;-79
2023/08/30 07:27:21;;;;;;;16.58;15.10;;;15.00;99.90;;;15.94;100.00;97298.91;10279860;28;20227;-79
2023/08/30 07:32:27;;;;;;;16.75;15.40;;;15.20;99.90;;;16.02;100.00;97291.34;10268414;28;20342;-77
2023/08/30 07:37:31;;;;;;;15.60;14.38;;;15.30;99.90;;;16.19;100.00;97300.41;10279755;28;20235;-78
2023/08/30 07:42:35;;;;;;;15.43;14.00;;;15.40;99.90;;;16.34;100.00;97300.81;10273306;28;20226;-78
2023/08/30 07:47:39;;;;;;;15.50;14.40;;;15.40;99.90;;;16.25;100.00;97299.69;10275782;28;20286;-79
2023/08/30 07:52:42;;;;;;;15.70;14.50;;;15.50;99.90;;;16.35;100.00;97297.38;10282964;28;20238;-78
2023/08/30 07:57:48;;;;;;;16.48;15.02;;;15.50;99.90;;;16.36;100.00;97293.97;10268408;28;20239;-78
2023/08/30 08:02:52;;;;;;;13.38;12.38;;;15.50;99.90;;;16.40;100.00;97294.94;10270544;28;20238;-78
2023/08/30 08:08:01;;;;;;;13.98;12.77;;;15.60;99.90;;;16.54;100.00;97293.56;10289732;28;20289;-77
2023/08/30 08:13:05;;;;;;;13.20;12.07;;;15.80;99.90;;;16.74;100.00;97290.56;10286343;28;20675;-78
2023/08/30 08:18:10;;;;;;;11.85;10.95;;;15.80;99.90;;;16.81;100.00;97289.94;10293681;28;20776;-79
2023/08/30 08:23:14;;;;;;;12.75;11.85;;;15.90;99.90;;;16.92;99.57;97296.22;10282255;28;20222;-78
2023/08/30 08:28:18;;;;;;;12.45;11.55;;;16.00;99.90;;;17.19;98.60;97292.50;10280233;28;20298;-76
2023/08/30 08:33:24;;;;;;;11.63;10.82;;;16.10;99.90;;;17.38;97.39;97288.59;10300091;28;20231;-79
2023/08/30 08:38:27;;;;;;;11.18;10.23;;;16.30;99.90;;;17.35;97.61;97297.16;10269653;28;20294;-78
2023/08/30 08:43:34;;;;;;;9.63;8.93;;;16.40;99.90;;;17.74;94.43;97289.34;10268497;28;20228;-78
2023/08/30 08:48:42;;;;;;;9.88;9.07;;;16.70;99.90;;;18.07;91.33;97295.16;10315593;28;20823;-79
2023/08/30 08:53:45;;;;;;;8.45;7.95;;;16.90;99.90;;;17.85;93.12;97289.56;10300235;28;20243;-79
2023/08/30 08:58:49;;;;;;;8.48;7.88;;;16.80;99.90;;;18.02;90.93;97276.97;10277430;28;20994;-78
2023/08/30 09:03:54;;;;;;;8.32;7.68;;;17.00;99.90;;;18.06;89.64;97283.09;10289569;28;21048;-78
2023/08/30 09:08:57;;;;;;;8.70;8.00;;;17.00;99.90;;;18.09;91.82;97285.72;10311084;28;20243;-79
2023/08/30 09:14:01;;;;;;;8.02;7.40;;;17.10;99.90;;;18.23;90.24;97287.72;10301677;28;20319;-80
2023/08/30 09:19:07;;;;;;;7.57;6.97;;;17.20;99.90;;;18.17;90.93;97286.72;10294221;28;20267;-80
2023/08/30 09:24:13;;;;;;;6.68;6.28;;;17.20;99.90;;;18.34;90.75;97290.50;10276883;28;20657;-78
2023/08/30 09:29:19;;;;;;;5.65;5.22;;;17.30;99.90;;;18.45;88.78;97281.16;10289184;28;20271;-80
2023/08/30 09:34:27;;;;;;;5.28;4.82;;;17.40;99.90;;;18.58;86.45;97278.81;10306636;28;20235;-81
2023/08/30 09:39:33;;;;;;;5.30;5.00;;;17.50;99.90;;;18.61;85.99;97279.72;10284223;28;20235;-80
2023/08/30 09:44:36;;;;;;;5.70;5.30;;;17.50;99.90;;;18.66;84.25;97272.91;10297013;28;21001;-79
2023/08/30 09:49:45;;;;;;;5.55;5.25;;;17.50;99.90;;;18.89;84.30;97275.00;10293095;28;20232;-79
2023/08/30 09:54:52;;;;;;;4.78;4.47;;;17.60;99.90;;;18.88;84.43;97275.84;10295444;28;20219;-80
2023/08/30 09:59:57;;;;;;;5.25;4.78;;;17.80;99.90;;;18.97;85.19;97275.09;10300750;28;20227;-80
2023/08/30 10:05:05;;;;;;;5.00;4.53;;;17.90;99.90;;;19.42;81.07;97259.31;10293278;28;20686;-80
2023/08/30 10:10:11;;;;;;;5.15;4.75;;;18.30;99.90;;;19.50;83.96;97262.00;10284531;28;20232;-80
2023/08/30 10:15:16;;;;;;;5.75;5.35;;;18.60;99.90;;;19.71;77.77;97251.03;10285494;28;20227;-81
2023/08/30 10:20:21;;;;;;;5.80;5.30;;;18.70;99.90;;;19.89;78.03;97247.78;10281764;28;20945;-81
2023/08/30 10:25:30;;;;;;;5.63;5.13;;;18.80;99.90;;;20.09;76.13;97241.06;10301658;28;20227;-80
2023/08/30 10:30:34;;;;;;;5.18;4.82;;;19.00;99.90;;;20.24;76.40;97238.59;10281802;28;20648;-82
2023/08/30 10:35:49;;;;;;;5.22;4.82;;;19.30;99.90;;;20.28;74.95;97239.50;10283891;28;20227;-80
2023/08/30 10:40:52;;;;;;;4.72;4.32;;;19.40;99.90;;;20.14;77.39;97228.97;10303657;28;20231;-80
2023/08/30 10:46:03;;;;;;;4.70;4.10;;;19.10;99.90;;;20.24;76.21;97232.56;10283689;28;20628;-83
2023/08/30 10:51:22;;;;;;;4.10;3.80;;;19.20;99.90;;;20.38;73.65;97232.69;10286417;28;20231;-81
2023/08/30 10:56:30;;;;;;;3.63;3.40;;;19.30;99.90;;;20.46;71.24;97233.63;10281957;28;20230;-81
2023/08/30 11:01:34;;;;;;;3.80;3.50;;;19.30;99.90;;;20.72;72.85;97228.66;10285347;28;20236;-80
2023/08/30 11:06:40;;;;;;;3.47;3.28;;;19.70;99.90;;;20.57;72.59;97221.59;10296667;28;20262;-82
2023/08/30 11:11:43;;;;;;;4.00;3.70;;;19.40;99.90;;;20.30;74.08;97234.34;10282245;28;20322;-81
2023/08/30 11:16:47;;;;;;;3.90;3.60;;;19.30;99.90;;;20.72;70.29;97220.84;10286675;28;20231;-83
2023/08/30 11:21:51;;;;;;;4.20;3.90;;;19.70;99.90;;;20.69;68.05;97219.09;10288436;28;20231;-81
2023/08/30 11:26:55;;;;;;;3.67;3.38;;;19.60;99.90;;;20.67;70.31;97213.00;10306640;28;20317;-81
2023/08/30 11:31:58;;;;;;;3.70;3.35;;;19.60;99.90;;;20.76;66.94;97203.56;10302901;28;20234;-83
2023/08/30 11:37:03;;;;;;;3.53;3.33;;;19.90;99.90;;;20.68;66.53;97206.94;10308385;28;20261;-79
2023/08/30 11:42:07;;;;;;;3.28;3.08;;;19.80;99.90;;;20.64;69.09;97202.59;10292010;28;20246;-82
2023/08/30 11:47:21;;;;;;;3.63;3.42;;;19.90;99.90;;;20.77;67.25;97211.34;10290018;28;20238;-79
2023/08/30 11:52:27;;;;;;;3.50;3.20;;;20.00;99.90;;;20.69;67.72;97213.91;10296166;28;20742;-81
2023/08/30 11:57:35;;;;;;;3.17;2.90;;;19.90;99.90;;;20.70;68.69;97205.25;10272616;28;20327;-82
2023/08/30 12:02:38;;;;;;;3.05;2.85;;;19.80;99.90;;;20.89;63.33;97205.38;10305091;28;20227;-83
2023/08/30 12:07:46;;;;;;;3.28;3.08;;;19.90;99.90;;;21.11;61.79;97196.81;10285145;28;20230;-82
2023/08/30 12:12:50;;;;;;;2.92;2.72;;;20.30;99.90;;;21.05;62.70;97199.38;10287965;28;20227;-82
2023/08/30 12:17:53;;;;;;;3.10;2.90;;;20.10;99.90;;;20.83;64.86;97189.72;10291359;28;20323;-80
2023/08/30 12:22:57;;;;;;;2.97;2.70;;;19.90;99.90;;;21.03;63.06;97182.03;10276124;28;20255;-80
2023/08/30 12:28:01;;;;;;;3.22;2.97;;;20.30;99.90;;;21.15;62.92;97176.91;10281858;28;20227;-82
2023/08/30 12:33:06;;;;;;;2.90;2.80;;;20.40;99.90;;;20.97;61.53;97176.81;10287823;28;20314;-81
2023/08/30 12:38:17;;;;;;;2.50;2.30;;;20.30;99.90;;;20.99;61.08;97168.16;10295449;28;20359;-81
2023/08/30 12:43:21;;;;;;;3.00;2.67;;;20.30;99.90;;;21.07;56.92;97163.88;10300210;28;20319;-80
2023/08/30 12:48:24;;;;;;;2.65;2.45;;;20.40;99.90;;;21.01;58.06;97165.59;10302146;28;20232;-80
2023/08/30 12:53:28;;;;;;;2.65;2.55;;;20.30;99.90;;;21.43;56.32;97164.88;10282412;28;20234;-82
2023/08/30 12:58:32;;;;;;;3.35;3.10;;;20.60;99.90;;;21.33;57.60;97171.78;10282787;28;20227;-82
2023/08/30 13:03:35;;;;;;;2.40;2.30;;;20.60;99.90;;;21.35;57.72;97166.59;10303308;28;20228;-80
2023/08/30 13:08:39;;;;;;;2.25;2.15;;;20.60;99.90;;;21.40;56.88;97164.88;10282221;28;20255;-81
2023/08/30 13:13:43;;;;;;;2.42;2.20;;;20.50;99.90;;;21.55;57.02;97157.16;10272905;28;20698;-81
2023/08/30 13:18:46;;;;;;;2.47;2.38;;;20.60;99.90;;;21.58;57.00;97162.34;10290224;28;20238;-81
2023/08/30 13:23:50;;;;;;;3.05;2.80;;;20.60;99.90;;;21.35;60.61;97184.78;10278766;28;20314;-82
2023/08/30 13:28:54;;;;;;;2.97;2.60;;;20.40;99.90;;;20.79;64.90;97182.78;10299107;28;20224;-82
2023/08/30 13:33:58;;;;;;;2.88;2.67;;;19.90;99.90;;;20.27;70.99;97183.25;10287673;28;20271;-79
2023/08/30 13:39:02;;;;;;;3.50;3.20;;;19.40;99.90;;;20.09;74.99;97167.53;10303869;28;20255;-78
2023/08/30 13:44:06;;;;;;;3.50;3.30;;;19.10;99.90;;;19.85;77.00;97165.59;10292285;28;20234;-78
2023/08/30 13:49:10;;;;;;;3.28;3.08;;;18.90;99.90;;;19.74;77.45;97171.56;10307487;28;20233;-80
2023/08/30 13:54:14;;;;;;;3.72;3.42;;;18.80;99.90;;;19.22;78.31;97176.13;10312503;28;20243;-80
2023/08/30 13:59:18;;;;;;;4.43;4.00;;;18.50;99.90;;;19.03;82.20;97166.38;10326764;28;20246;-79
2023/08/30 14:04:21;;;;;;;3.58;3.22;;;18.40;99.90;;;19.24;80.64;97169.25;10310650;28;20227;-78
2023/08/30 14:09:26;;;;;;;3.80;3.50;;;18.50;99.90;;;19.50;81.20;97168.69;10301516;28;20235;-79
2023/08/30 14:14:29;;;;;;;3.97;3.58;;;18.70;99.90;;;19.65;79.31;97174.03;10296610;28;20227;-81
2023/08/30 14:19:35;;;;;;;3.92;3.55;;;18.80;99.90;;;19.74;77.19;97181.94;10297411;28;20223;-83
2023/08/30 14:24:39;;;;;;;3.72;3.53;;;18.80;99.90;;;19.64;78.78;97174.88;10289484;28;20220;-79
2023/08/30 14:30:03;;;;;;;3.90;3.60;;;18.80;99.90;;;19.69;76.79;97173.25;10306080;28;20239;-81
2023/08/30 14:35:07;;;;;;;3.50;3.30;;;18.80;99.90;;;19.66;76.54;97178.41;10284895;28;20249;-84
2023/08/30 14:40:13;;;;;;;3.75;3.33;;;18.60;99.90;;;19.57;78.28;97173.06;10301893;28;20357;-85
2023/08/30 14:45:17;;;;;;;3.88;3.40;;;18.60;99.90;;;19.53;77.95;97179.94;10307125;28;20288;-84
2023/08/30 14:50:20;;;;;;;4.00;3.70;;;18.50;99.90;;;19.46;79.46;97175.56;10293146;28;20240;-84
2023/08/30 14:55:25;;;;;;;3.40;3.20;;;18.50;99.90;;;19.61;79.11;97177.44;10307585;28;20232;-82
2023/08/30 15:00:29;;;;;;;3.78;3.50;;;18.60;99.90;;;19.55;79.64;97170.47;10301109;28;20235;-82
2023/08/30 15:05:32;;;;;;;3.70;3.40;;;18.60;99.90;;;19.59;79.44;97177.41;10307101;28;20234;-81
2023/08/30 15:10:37;;;;;;;3.78;3.47;;;18.70;99.90;;;19.71;77.82;97170.66;10311521;28;20239;-82
2023/08/30 15:15:40;;;;;;;4.30;4.00;;;18.70;99.90;;;19.62;79.21;97171.38;10295577;28;20346;-83
2023/08/30 15:20:44;;;;;;;3.80;3.60;;;18.60;99.90;;;19.71;79.33;97165.47;10294258;28;20234;-77
2023/08/30 15:25:50;;;;;;;3.97;3.67;;;18.50;99.90;;;19.66;79.18;97170.63;10275513;28;20239;-81
2023/08/30 15:30:53;;;;;;;4.15;3.75;;;18.70;99.90;;;19.65;79.66;97171.44;10273589;28;20624;-80
2023/08/30 15:35:59;;;;;;;4.10;3.80;;;18.60;99.90;;;19.61;80.29;97174.84;10270604;28;20231;-82
2023/08/30 15:41:09;;;;;;;4.32;4.03;;;18.70;99.90;;;19.64;78.12;97164.50;10296776;28;20318;-82
2023/08/30 15:46:13;;;;;;;3.63;3.42;;;18.70;99.90;;;19.55;79.40;97161.81;10272684;28;20259;-81
2023/08/30 15:51:17;;;;;;;4.25;3.95;;;18.60;99.90;;;19.45;78.74;97162.56;10274954;28;20322;-80
2023/08/30 15:56:28;;;;;;;3.58;3.38;;;18.40;99.90;;;19.40;79.41;97159.94;10274937;28;20752;-80
2023/08/30 16:01:31;;;;;;;3.53;3.33;;;18.50;99.90;;;19.41;78.43;97161.66;10290990;28;20261;-81
2023/08/30 16:06:34;;;;;;;3.45;3.25;;;18.50;99.90;;;19.52;76.84;97165.25;10285458;28;20713;-81
2023/08/30 16:11:39;;;;;;;3.25;3.05;;;18.70;99.90;;;19.62;76.61;97155.84;10293218;28;20232;-81
2023/08/30 16:16:42;;;;;;;3.78;3.47;;;18.80;99.90;;;19.60;74.84;97152.34;10273610;28;20230;-81
2023/08/30 16:21:45;;;;;;;3.40;3.20;;;18.70;99.90;;;19.56;73.68;97150.59;10306868;28;20234;-82
2023/08/30 16:26:55;;;;;;;3.08;2.88;;;18.70;99.90;;;19.46;78.22;97153.94;10292202;28;20222;-81
2023/08/30 16:31:58;;;;;;;3.30;3.10;;;18.70;99.90;;;19.36;74.86;97152.97;10284407;28;20651;-79
2023/08/30 16:37:02;;;;;;;3.15;2.95;;;18.50;99.90;;;19.29;74.41;97157.22;10288587;28;20795;-82
2023/08/30 16:42:06;;;;;;;3.55;3.25;;;18.50;99.90;;;19.22;78.31;97150.22;10272612;28;20224;-81
2023/08/30 16:47:10;;;;;;;3.28;3.08;;;18.40;99.90;;;19.03;79.66;97156.03;10289276;28;20220;-81
2023/08/30 16:52:13;;;;;;;4.20;3.80;;;18.20;99.90;;;19.03;80.43;97154.34;10288884;28;20253;-81
2023/08/30 16:57:17;;;;;;;4.43;4.03;;;18.20;99.90;;;19.02;81.61;97151.72;10301873;28;20254;-81
2023/08/30 17:02:21;;;;;;;4.03;3.72;;;18.20;99.90;;;18.95;83.13;97155.09;10300290;28;20228;-79
2023/08/30 17:07:24;;;;;;;3.28;3.08;;;18.10;99.90;;;18.80;83.57;97156.63;10297654;28;20232;-81
2023/08/30 17:12:28;;;;;;;3.90;3.60;;;18.00;99.90;;;18.74;84.76;97156.50;10295444;28;20231;-81
2023/08/30 17:17:31;;;;;;;3.50;3.30;;;18.00;99.90;;;18.69;83.31;97148.69;10301501;28;20234;-80
2023/08/30 17:22:35;;;;;;;4.03;3.72;;;17.80;99.90;;;18.71;80.61;97153.84;10301620;28;20232;-81
2023/08/30 17:27:42;;;;;;;3.70;3.40;;;17.80;99.90;;;18.64;81.29;97155.50;10273821;28;20263;-81
2023/08/30 17:32:45;;;;;;;3.67;3.47;;;17.80;99.90;;;18.61;80.19;97154.59;10278787;28;20231;-81
2023/08/30 17:37:49;;;;;;;3.97;3.72;;;17.80;99.90;;;18.54;80.74;97161.41;10273397;28;21102;-81
2023/08/30 17:42:53;;;;;;;4.22;3.92;;;17.70;99.90;;;18.44;81.64;97154.34;10292613;28;20611;-82
2023/08/30 17:47:56;;;;;;;4.47;4.07;;;17.60;99.90;;;18.27;82.93;97155.81;10273441;28;20697;-81
2023/08/30 17:52:59;;;;;;;3.80;3.50;;;17.50;99.90;;;18.19;84.01;97155.69;10264284;28;20986;-81
2023/08/30 17:58:04;;;;;;;4.38;3.95;;;17.30;99.90;;;17.99;86.73;97158.81;10282786;28;20230;-81
2023/08/30 18:03:07;;;;;;;4.07;3.78;;;17.20;99.90;;;17.73;88.28;97165.22;10286348;28;20744;-79
2023/08/30 18:08:11;;;;;;;3.92;3.63;;;16.90;99.90;;;17.47;89.27;97173.38;10265000;28;20257;-80
2023/08/30 18:13:15;;;;;;;3.75;3.42;;;16.60;99.90;;;17.36;90.07;97180.06;10270906;28;20319;-82
2023/08/30 18:18:18;;;;;;;3.78;3.47;;;16.50;99.90;;;17.27;93.23;97179.88;10267165;28;20236;-80
2023/08/30 18:23:21;;;;;;;4.10;3.80;;;16.40;99.90;;;17.18;93.78;97182.28;10266023;28;20243;-81
2023/08/30 18:28:26;;;;;;;4.00;3.70;;;16.30;99.90;;;17.14;94.96;97178.78;10268608;28;20232;-82
2023/08/30 18:33:29;;;;;;;3.50;3.30;;;16.30;99.90;;;17.11;95.88;97184.75;10268860;28;20231;-80
2023/08/30 18:38:32;;;;;;;4.90;4.47;;;16.30;99.90;;;17.00;97.23;97191.41;10263472;28;20315;-80
2023/08/30 18:43:37;;;;;;;4.45;4.15;;;16.20;99.90;;;16.90;97.02;97189.44;10269080;28;20230;-81
2023/08/30 18:48:40;;;;;;;5.25;4.85;;;16.20;99.90;;;16.81;97.77;97191.84;10291545;28;20220;-82
2023/08/30 18:53:43;;;;;;;4.60;4.30;;;16.00;99.90;;;16.78;99.14;97191.78;10271852;28;20242;-79
2023/08/30 18:58:48;;;;;;;4.80;4.50;;;15.90;99.90;;;16.69;99.20;97197.56;10272364;28;20231;-80
2023/08/30 19:03:51;;;;;;;5.00;4.70;;;15.80;99.90;;;16.43;99.90;97194.41;10267174;28;20256;-79
2023/08/30 19:08:55;;;;;;;5.25;4.85;;;15.60;99.90;;;16.36;100.00;97200.25;10285724;28;20234;-80
2023/08/30 19:14:01;;;;;;;5.40;4.90;;;15.60;99.90;;;16.25;100.00;97201.69;10271623;28;20231;-80
2023/08/30 19:19:05;;;;;;;5.25;4.63;;;15.50;99.90;;;16.16;100.00;97202.34;10284733;28;20238;-81
2023/08/30 19:24:09;;;;;;;5.50;5.03;;;15.30;99.90;;;16.01;100.00;97192.53;10290530;28;20251;-81
2023/08/30 19:29:14;;;;;;;5.25;4.82;;;15.20;99.90;;;15.74;100.00;97188.41;10268214;28;20240;-80
2023/08/30 19:34:17;;;;;;;5.00;4.70;;;15.00;99.90;;;15.61;100.00;97203.47;10296761;28;20236;-80
2023/08/30 19:39:20;;;;;;;5.25;4.85;;;14.90;99.90;;;15.58;100.00;97211.13;10270229;28;20227;-80
2023/08/30 19:44:25;;;;;;;5.90;5.40;;;14.80;99.90;;;15.60;100.00;97205.19;10270193;28;20235;-81
2023/08/30 19:49:28;;;;;;;5.07;4.68;;;14.90;99.90;;;15.67;100.00;97207.09;10265393;28;20231;-80
2023/08/30 19:54:31;;;;;;;4.55;4.25;;;15.00;99.90;;;15.68;100.00;97215.72;10269286;28;21709;-81
2023/08/30 19:59:35;;;;;;;5.50;5.18;;;15.00;99.90;;;15.77;100.00;97219.41;10285637;28;20736;-80
2023/08/30 20:04:39;;;;;;;5.32;5.03;;;15.00;99.90;;;15.82;99.30;97224.69;10268318;28;20242;-80
2023/08/30 20:09:42;;;;;;;5.80;5.40;;;15.10;99.90;;;15.69;99.46;97246.69;10271996;28;20235;-81
2023/08/30 20:14:47;;;;;;;5.13;4.72;;;15.10;99.90;;;15.85;99.13;97247.09;10270033;28;20243;-80
2023/08/30 20:19:51;;;;;;;5.43;5.00;;;15.20;99.90;;;16.11;97.44;97253.81;10300025;28;20559;-81
2023/08/30 20:24:56;;;;;;;5.13;4.72;;;15.40;99.90;;;16.11;98.99;97256.38;10276055;28;20219;-81
2023/08/30 20:30:00;;;;;;;5.22;4.93;;;15.40;99.90;;;16.10;100.00;97254.63;10308655;28;20230;-80
2023/08/30 20:35:05;;;;;;;5.97;5.05;;;15.40;99.90;;;16.04;100.00;97253.59;10282498;28;20672;-81
2023/08/30 20:40:10;;;;;;;4.90;4.60;;;15.30;99.90;;;16.06;100.00;97268.28;10289245;28;20330;-81
2023/08/30 20:45:16;;;;;;;5.30;4.80;;;15.40;99.90;;;16.07;100.00;97282.91;10296457;28;20238;-81
2023/08/30 20:50:19;;;;;;;6.07;5.57;;;15.40;99.90;;;16.08;100.00;97297.56;10272349;28;20872;-81